NZAA/AKL METAR and TAF weather

Enter ICAO airport designator
Station Type Date Time Source
NZAA METAR 2020/11/27 14:00 UTC NOAA

NZAA 271400Z AUTO 23021KT 9999 BKN037/// OVC050/// 15/09 Q1010 NOSIG


Station Type Date Time Source
NZAA Decoded METAR 2020/11/27 14:00 UTC NOAA

Auckland Airport, New Zealand (NZAA) 37-01S 174-48E 6M
Nov 27, 2020 - 09:00 AM EST / 2020.11.27 1400 UTC
Wind: from the SW (230 degrees) at 24 MPH (21 KT):0
Visibility: greater than 7 mile(s):0
Sky conditions: overcast
Temperature: 59 F (15 C)
Dew Point: 48 F (9 C)
Relative Humidity: 67%
Pressure (altimeter): 29.83 in. Hg (1010 hPa)
ob: NZAA 271400Z AUTO 23021KT 9999 BKN037/// OVC050/// 15/09 Q1010 NOSIG
cycle: 14

Station Type Date Time Source
NZAA TAF 2020/11/27 12:24 UTC NOAA

TAF TAF NZAA 271121Z 2712/2812 24020G30KT 9999 SCT025
BECMG 2720/2722 24015KT
BECMG 2808/2810 30008KT

Example: see airport list